Time;durP1;ratioP1;P1;durP2;ratioP2;P2;SDS_P1;SDS_P2;PMS_P1;PMS_P2;Temp;Humidity;BMP_temperature;BMP_pressure;BME280_temperature;BME280_humidity;BME280_pressure;Samples;Min_cycle;Max_cycle;Signal;HPM_P1;HPM_P2
2023/08/19 00:01:31;;;;;;;14.55;13.25;;;;;;;-145.63;55.53;38326.16;5024261;28;20129;-68
2023/08/19 00:03:56;;;;;;;14.38;13.02;;;;;;;-145.63;55.63;38339.84;5024833;28;20081;-69
2023/08/19 00:06:36;;;;;;;15.55;14.02;;;;;;;-145.63;55.34;38337.88;5024708;28;20025;-69
2023/08/19 00:09:04;;;;;;;14.60;13.05;;;;;;;-145.63;55.76;38285.09;5024581;28;20269;-67
2023/08/19 00:11:34;;;;;;;14.43;13.02;;;;;;;-145.63;55.51;38320.28;5024742;28;20029;-68
2023/08/19 00:14:00;;;;;;;15.00;13.50;;;;;;;-145.63;55.57;38308.56;5024845;28;20100;-69
2023/08/19 00:16:26;;;;;;;14.85;13.35;;;;;;;-145.63;55.61;38324.19;5024520;28;20037;-69
2023/08/19 00:18:51;;;;;;;16.27;14.52;;;;;;;-145.63;55.65;38343.75;5024597;28;20018;-68
2023/08/19 00:21:17;;;;;;;15.43;13.82;;;;;;;-145.63;56.11;38357.44;5024276;28;20057;-69
2023/08/19 00:23:43;;;;;;;14.18;12.77;;;;;;;-145.63;55.88;38375.03;5024769;28;20030;-68
2023/08/19 00:26:11;;;;;;;12.80;11.60;;;;;;;-145.63;55.76;38306.59;5024441;28;20026;-68
2023/08/19 00:28:38;;;;;;;15.38;13.80;;;;;;;-145.63;56.11;38365.25;5024429;28;20080;-68
2023/08/19 00:31:04;;;;;;;15.48;13.60;;;;;;;-145.63;56.01;38359.41;5024235;28;20167;-69
2023/08/19 00:33:29;;;;;;;15.10;13.75;;;;;;;-145.63;55.93;38373.09;5024296;28;20072;-68
2023/08/19 00:35:55;;;;;;;15.75;13.98;;;;;;;-145.63;55.74;38367.22;5024413;28;20021;-68
2023/08/19 00:38:21;;;;;;;15.45;13.82;;;;;;;-145.63;55.96;38382.88;5024246;28;20032;-69
2023/08/19 00:40:46;;;;;;;16.25;12.75;;;;;;;-145.63;56.17;38378.94;5024301;28;20080;-68
2023/08/19 00:43:12;;;;;;;16.05;13.35;;;;;;;-145.63;56.14;38363.31;5024125;28;20038;-68
2023/08/19 00:45:44;;;;;;;14.85;13.45;;;;;;;-145.63;56.04;38343.75;5023958;28;20022;-68
2023/08/19 00:48:12;;;;;;;15.48;13.82;;;;;;;-145.63;55.92;38386.78;5023919;28;20034;-68
2023/08/19 00:50:39;;;;;;;14.85;13.50;;;;;;;-145.63;55.70;38373.09;5023925;28;20025;-67
2023/08/19 00:53:05;;;;;;;14.25;12.88;;;;;;;-145.63;55.74;38375.03;5023930;28;20049;-67
2023/08/19 00:55:31;;;;;;;15.98;13.65;;;;;;;-145.63;55.74;38414.16;5023891;28;20037;-67
2023/08/19 00:58:01;;;;;;;17.13;13.50;;;;;;;-145.63;55.84;38388.72;5023972;28;20021;-67
2023/08/19 01:00:30;;;;;;;13.63;12.32;;;;;;;-145.63;55.82;38347.66;5023839;28;20322;-67
2023/08/19 01:02:55;;;;;;;14.60;13.20;;;;;;;-145.63;55.82;38412.19;5023141;28;20058;-67
2023/08/19 01:05:25;;;;;;;15.18;13.63;;;;;;;-145.63;55.63;38431.75;5023781;28;20113;-68
2023/08/19 01:07:57;;;;;;;14.48;12.98;;;;;;;-145.63;55.86;38351.56;5023993;28;20239;-68
2023/08/19 01:10:27;;;;;;;14.50;13.27;;;;;;;-145.63;55.80;38222.53;5023877;28;20036;-67
2023/08/19 01:13:08;;;;;;;13.73;12.40;;;;;;;-145.63;55.79;38390.69;5023591;28;20033;-68
2023/08/19 01:15:38;;;;;;;15.07;12.75;;;;;;;-145.63;55.41;38414.16;5023648;28;20026;-68
2023/08/19 01:18:06;;;;;;;14.63;13.00;;;;;;;-145.63;55.41;38404.38;5023750;28;20017;-68
2023/08/19 01:20:33;;;;;;;14.68;13.32;;;;;;;-145.63;55.53;38386.78;5023576;28;20053;-68
2023/08/19 01:23:06;;;;;;;15.00;13.05;;;;;;;-145.63;55.59;38388.72;5023408;28;20046;-68
2023/08/19 01:25:32;;;;;;;13.90;12.55;;;;;;;-145.63;55.77;38420.00;5023501;28;20040;-69
2023/08/19 01:28:04;;;;;;;13.82;12.43;;;;;;;-145.63;55.63;38380.91;5022530;28;20064;-68
2023/08/19 01:30:33;;;;;;;13.23;11.80;;;;;;;-145.63;55.57;38392.63;5023380;28;20089;-68
2023/08/19 01:33:03;;;;;;;13.60;12.30;;;;;;;-145.63;55.63;38449.34;5023375;28;20033;-68
2023/08/19 01:35:35;;;;;;;14.45;12.63;;;;;;;-145.63;55.76;38400.47;5023641;28;20213;-68
2023/08/19 01:38:27;;;;;;;;;;;;;;;-145.63;55.60;38378.94;5024298;28;20033;-67
2023/08/19 01:40:53;;;;;;;13.67;12.30;;;;;;;-145.63;55.58;38425.88;5007526;28;19909;-68
2023/08/19 01:43:18;;;;;;;14.88;12.65;;;;;;;-145.63;55.71;38431.75;5023498;28;20096;-68
2023/08/19 01:45:44;;;;;;;14.77;13.40;;;;;;;-145.63;55.50;38097.41;5023365;28;20021;-68
2023/08/19 01:48:10;;;;;;;14.43;12.95;;;;;;;-145.63;55.84;38425.88;5023552;28;20032;-67
2023/08/19 01:50:35;;;;;;;14.18;11.82;;;;;;;-145.63;55.63;38455.22;5023276;28;20025;-67
2023/08/19 01:53:01;;;;;;;13.23;11.82;;;;;;;-145.63;55.81;38463.03;5023346;28;20325;-68
2023/08/19 01:55:27;;;;;;;13.63;12.32;;;;;;;-145.63;55.91;38443.47;5023281;28;20084;-68
2023/08/19 01:57:52;;;;;;;13.43;12.20;;;;;;;-145.63;55.91;38506.03;5023402;28;20030;-68
2023/08/19 02:00:18;;;;;;;16.25;12.18;;;;;;;-145.63;55.74;38425.88;5023448;28;20036;-68
2023/08/19 02:02:44;;;;;;;12.77;11.48;;;;;;;-145.63;55.78;38451.28;5023127;28;20038;-68
2023/08/19 02:05:14;;;;;;;14.00;12.68;;;;;;;-145.63;55.89;38437.59;5023355;28;20033;-68
2023/08/19 02:07:40;;;;;;;18.35;15.00;;;;;;;-145.63;55.91;38421.97;5023129;28;20318;-68
2023/08/19 02:10:07;;;;;;;15.93;14.40;;;;;;;-145.63;55.84;38439.56;5023408;28;20084;-67
2023/08/19 02:12:33;;;;;;;13.23;12.02;;;;;;;-145.63;55.78;38435.66;5023247;28;20032;-68
2023/08/19 02:14:59;;;;;;;13.43;12.20;;;;;;;-145.63;55.80;38464.97;5025341;28;20050;-68
2023/08/19 02:17:44;;;;;;;13.25;12.02;;;;;;;-145.63;56.02;38464.97;5026291;28;20037;-67
2023/08/19 02:20:10;;;;;;;14.32;12.93;;;;;;;-145.63;56.12;38472.81;5027077;28;20229;-70
2023/08/19 02:22:38;;;;;;;13.52;12.23;;;;;;;-145.63;56.30;38547.09;5026737;28;20289;-69
2023/08/19 02:25:04;;;;;;;12.85;11.75;;;;;;;-145.63;56.20;38416.09;5026644;28;20030;-69
2023/08/19 02:27:31;;;;;;;13.48;12.05;;;;;;;-145.63;56.07;38449.34;5026868;28;20190;-68
2023/08/19 02:29:58;;;;;;;13.00;11.65;;;;;;;-145.63;56.11;38431.75;5026726;28;20034;-67
2023/08/19 02:32:24;;;;;;;13.65;12.23;;;;;;;-145.63;56.10;38474.75;5026289;28;20313;-67
2023/08/19 02:34:49;;;;;;;14.18;12.50;;;;;;;-145.63;56.14;38463.03;5026574;28;20037;-68
2023/08/19 02:37:15;;;;;;;15.00;12.52;;;;;;;-145.63;56.20;38461.06;5025349;28;20046;-67
2023/08/19 02:39:41;;;;;;;13.65;12.35;;;;;;;-145.63;56.22;38449.34;5026299;28;20029;-67
2023/08/19 02:42:06;;;;;;;13.70;12.40;;;;;;;-145.63;56.14;38468.91;5026650;28;20056;-69
2023/08/19 02:44:32;;;;;;;13.68;12.27;;;;;;;-145.63;56.30;38461.06;5025186;28;20029;-68
2023/08/19 02:46:57;;;;;;;15.55;11.98;;;;;;;-145.63;56.32;38463.03;5026497;28;20036;-68
2023/08/19 02:49:23;;;;;;;12.60;11.30;;;;;;;-145.63;56.36;38472.81;5026130;28;20053;-68
2023/08/19 02:51:49;;;;;;;14.35;12.30;;;;;;;-145.63;56.07;38496.28;5026295;28;20076;-67
2023/08/19 02:54:14;;;;;;;13.45;11.43;;;;;;;-145.63;56.11;38470.84;5026413;28;20048;-68
2023/08/19 02:56:40;;;;;;;14.23;12.77;;;;;;;-145.63;56.05;38492.34;5026103;28;20040;-68
2023/08/19 02:59:06;;;;;;;14.27;12.30;;;;;;;-145.63;55.96;38429.78;5026180;28;20065;-68
2023/08/19 03:01:31;;;;;;;12.90;11.73;;;;;;;-145.63;56.31;38457.16;5026065;28;20030;-68
2023/08/19 03:03:57;;;;;;;12.80;11.55;;;;;;;-145.63;56.22;38445.44;5025901;28;20048;-68
2023/08/19 03:06:22;;;;;;;13.07;11.88;;;;;;;-145.63;56.34;38474.75;5025841;28;20025;-67
2023/08/19 03:08:48;;;;;;;14.55;12.93;;;;;;;-145.63;55.99;38441.53;5024693;28;20033;-67
2023/08/19 03:11:14;;;;;;;13.52;12.23;;;;;;;-145.63;55.91;38437.59;5024495;28;20265;-69
2023/08/19 03:13:39;;;;;;;13.10;11.85;;;;;;;-145.63;56.06;38464.97;5024496;28;20318;-68
2023/08/19 03:16:05;;;;;;;14.57;13.07;;;;;;;-145.63;55.75;38443.47;5025734;28;20033;-68
2023/08/19 03:18:31;;;;;;;14.13;12.55;;;;;;;-145.63;55.84;38439.56;5024557;28;20095;-68
2023/08/19 03:20:58;;;;;;;13.35;11.73;;;;;;;-145.63;55.63;38429.78;5024445;28;20029;-66
2023/08/19 03:23:28;;;;;;;12.77;11.68;;;;;;;-145.63;55.51;38445.44;5025906;28;20329;-68
2023/08/19 03:25:54;;;;;;;13.05;11.85;;;;;;;-145.63;55.34;38451.28;5024868;28;20096;-68
2023/08/19 03:28:20;;;;;;;12.93;11.73;;;;;;;-145.63;55.41;38418.06;5025770;28;20041;-68
2023/08/19 03:30:46;;;;;;;13.27;12.05;;;;;;;-145.63;55.42;38425.88;5025254;28;20025;-67
2023/08/19 03:33:11;;;;;;;13.05;11.75;;;;;;;-145.63;55.48;38461.06;5025458;28;20210;-69
2023/08/19 03:35:37;;;;;;;13.27;12.00;;;;;;;-145.63;55.47;38453.25;5025286;28;20331;-69
2023/08/19 03:38:03;;;;;;;13.55;12.20;;;;;;;-145.63;55.74;38437.59;5025496;28;20105;-69
2023/08/19 03:40:29;;;;;;;13.02;11.80;;;;;;;-145.63;55.58;38423.91;5025280;28;20025;-69
2023/08/19 03:42:55;;;;;;;12.45;11.15;;;;;;;-145.63;55.59;38441.53;5024279;28;20028;-69
2023/08/19 03:45:20;;;;;;;12.68;11.48;;;;;;;-145.63;54.89;38382.88;5024756;28;20329;-69
2023/08/19 03:47:46;;;;;;;12.55;11.18;;;;;;;-145.63;54.86;38429.78;5025602;28;20033;-69
2023/08/19 03:50:12;;;;;;;12.27;11.10;;;;;;;-145.63;54.58;38394.59;5025485;28;20214;-68
2023/08/19 03:52:38;;;;;;;12.68;11.48;;;;;;;-145.63;54.55;38384.81;5024894;28;20057;-69
2023/08/19 03:55:04;;;;;;;12.70;11.13;;;;;;;-145.63;54.30;38388.72;5024896;28;20018;-67
2023/08/19 03:57:30;;;;;;;12.23;11.05;;;;;;;-145.63;54.51;38359.41;5025228;28;20017;-68
2023/08/19 03:59:55;;;;;;;12.55;11.27;;;;;;;-145.63;54.30;38394.59;5025005;28;20048;-68
2023/08/19 04:02:21;;;;;;;13.20;10.75;;;;;;;-145.63;54.41;38369.19;5025045;28;20340;-69
2023/08/19 04:05:01;;;;;;;13.40;11.98;;;;;;;-145.63;54.34;38375.03;5024597;28;20030;-69
2023/08/19 04:07:29;;;;;;;13.25;11.30;;;;;;;-145.63;54.21;38367.22;5025031;28;20291;-69
2023/08/19 04:09:55;;;;;;;13.43;11.23;;;;;;;-145.63;53.98;38314.44;5024662;28;20037;-69
2023/08/19 04:12:25;;;;;;;12.18;10.77;;;;;;;-145.63;53.91;38355.50;5024844;28;20041;-69
2023/08/19 04:14:51;;;;;;;18.38;12.15;;;;;;;-145.63;53.67;38339.84;5024623;28;20026;-69
2023/08/19 04:17:17;;;;;;;14.90;11.43;;;;;;;-145.63;53.62;38316.38;5024699;28;20277;-68
2023/08/19 04:19:43;;;;;;;14.57;11.75;;;;;;;-145.63;52.97;38357.44;5024328;28;20037;-68
2023/08/19 04:22:14;;;;;;;13.75;11.38;;;;;;;-145.63;53.15;38394.59;5024402;28;20103;-67
2023/08/19 04:24:40;;;;;;;12.40;10.95;;;;;;;-145.63;53.32;38359.41;5023178;28;20025;-68
2023/08/19 04:27:06;;;;;;;11.38;10.27;;;;;;;-145.63;53.23;38332.03;5024251;28;20096;-68
2023/08/19 04:29:34;;;;;;;12.02;10.68;;;;;;;-145.63;52.99;38349.63;5024193;28;20030;-68
2023/08/19 04:32:01;;;;;;;12.30;11.10;;;;;;;-145.63;52.69;38341.81;5024527;28;20198;-67
2023/08/19 04:34:28;;;;;;;13.43;11.63;;;;;;;-145.63;52.87;38351.56;5024512;28;20036;-69
2023/08/19 04:36:54;;;;;;;12.73;10.70;;;;;;;-145.63;53.07;38312.47;5023049;28;20198;-69
2023/08/19 04:39:20;;;;;;;11.30;10.18;;;;;;;-145.63;53.01;38277.28;5024216;28;20030;-68
2023/08/19 04:41:46;;;;;;;13.23;11.18;;;;;;;-145.63;52.79;38353.53;5024162;28;20034;-67
2023/08/19 04:44:12;;;;;;;11.70;10.60;;;;;;;-145.63;52.81;38341.81;5024330;28;20238;-68
2023/08/19 04:46:37;;;;;;;13.88;11.23;;;;;;;-145.63;53.08;38312.47;5023871;28;20034;-68
2023/08/19 04:49:03;;;;;;;11.45;10.27;;;;;;;-145.63;53.14;38324.19;5023999;28;20034;-68
2023/08/19 04:51:29;;;;;;;14.55;11.23;;;;;;;-145.63;53.51;38341.81;5023852;28;20072;-68
2023/08/19 04:53:55;;;;;;;12.98;11.38;;;;;;;-145.63;53.10;38300.75;5024052;28;20056;-70
2023/08/19 04:56:20;;;;;;;11.48;10.43;;;;;;;-145.63;52.84;38320.28;5024051;28;20317;-68
2023/08/19 04:58:46;;;;;;;11.43;9.98;;;;;;;-145.63;52.92;38310.50;5023686;28;20028;-68
2023/08/19 05:01:11;;;;;;;11.45;10.25;;;;;;;-145.63;52.70;38236.22;5023843;28;20026;-69
2023/08/19 05:03:37;;;;;;;11.75;10.55;;;;;;;-145.63;52.71;38253.81;5023876;28;20033;-68
2023/08/19 05:06:03;;;;;;;11.90;10.32;;;;;;;-145.63;52.49;38281.19;5023898;28;20367;-68
2023/08/19 05:08:30;;;;;;;11.45;10.35;;;;;;;-145.63;52.39;38201.03;5023741;28;20072;-68
2023/08/19 05:10:55;;;;;;;12.60;10.48;;;;;;;-145.63;51.91;38095.44;5023219;28;20326;-68
2023/08/19 05:13:21;;;;;;;12.45;10.75;;;;;;;-145.63;50.85;38042.66;5023395;28;20037;-69
2023/08/19 05:15:47;;;;;;;10.80;9.70;;;;;;;-145.63;50.51;38019.19;5023481;28;20033;-70
2023/08/19 05:18:12;;;;;;;13.88;11.50;;;;;;;-145.63;50.15;38058.28;5023795;28;20030;-70
2023/08/19 05:20:38;;;;;;;12.57;10.68;;;;;;;-145.63;50.42;38064.16;5023441;28;20026;-69
2023/08/19 05:23:04;;;;;;;11.57;10.48;;;;;;;-145.63;50.62;38062.22;5023428;28;20210;-69
2023/08/19 05:25:29;;;;;;;13.45;11.75;;;;;;;-145.63;50.43;38085.66;5023716;28;20202;-68
2023/08/19 05:27:56;;;;;;;12.63;11.32;;;;;;;-145.63;50.74;38079.81;5023495;28;20125;-69
2023/08/19 05:30:22;;;;;;;14.18;11.88;;;;;;;-145.63;50.74;38116.94;5023544;28;20022;-70
2023/08/19 05:32:48;;;;;;;12.35;11.05;;;;;;;-145.63;50.78;38089.56;5022526;28;20052;-69
2023/08/19 05:35:14;;;;;;;11.93;10.75;;;;;;;-145.63;50.59;38095.44;5023572;28;20022;-68
2023/08/19 05:37:39;;;;;;;13.70;11.63;;;;;;;-145.63;50.50;38083.72;5023321;28;20324;-68
2023/08/19 05:40:06;;;;;;;12.93;11.63;;;;;;;-145.63;50.88;38071.97;5023561;28;20037;-69
2023/08/19 05:42:31;;;;;;;15.02;11.70;;;;;;;-145.63;50.74;38120.88;5023152;28;20034;-69
2023/08/19 05:44:57;;;;;;;12.25;11.10;;;;;;;-145.63;50.72;38032.88;5023323;28;20040;-68
2023/08/19 05:47:23;;;;;;;12.35;11.10;;;;;;;-145.63;50.47;38066.13;5023272;28;20033;-68
2023/08/19 05:49:48;;;;;;;11.57;10.55;;;;;;;-145.63;50.18;38027.00;5025446;28;20029;-68
2023/08/19 05:52:14;;;;;;;12.57;11.38;;;;;;;-145.63;50.21;37997.69;5027415;28;20052;-68
2023/08/19 05:54:40;;;;;;;12.45;11.30;;;;;;;-145.63;49.86;38085.66;5027298;28;20021;-68
2023/08/19 05:57:06;;;;;;;11.60;10.35;;;;;;;-145.63;49.88;38005.50;5027450;28;20034;-68
2023/08/19 05:59:31;;;;;;;17.40;11.45;;;;;;;-145.63;50.17;37980.09;5027270;28;20032;-68
2023/08/19 06:01:57;;;;;;;12.43;11.15;;;;;;;-145.63;49.39;37964.44;5027213;28;20109;-68
2023/08/19 06:04:23;;;;;;;14.93;10.88;;;;;;;-145.63;49.15;37970.31;5026956;28;20049;-69
2023/08/19 06:06:48;;;;;;;12.43;10.50;;;;;;;-145.63;49.16;37978.13;5026995;28;20053;-68
2023/08/19 06:09:14;;;;;;;12.13;10.93;;;;;;;-145.63;49.38;37917.53;5026833;28;20318;-68
2023/08/19 06:11:48;;;;;;;11.90;10.20;;;;;;;-145.63;49.04;37929.25;5026826;28;20326;-68
2023/08/19 06:14:14;;;;;;;12.23;10.82;;;;;;;-145.63;49.04;37903.84;5026758;28;20306;-69
2023/08/19 06:16:41;;;;;;;11.48;10.32;;;;;;;-145.63;49.11;37903.84;5026590;28;20060;-68
2023/08/19 06:19:06;;;;;;;10.43;9.30;;;;;;;-145.63;48.93;37866.69;5026854;28;20036;-68
2023/08/19 06:21:32;;;;;;;10.80;9.82;;;;;;;-145.63;48.83;37901.88;5026582;28;20105;-69
2023/08/19 06:23:57;;;;;;;10.60;9.50;;;;;;;-145.63;48.14;37872.56;5026880;28;20022;-69
2023/08/19 06:26:25;;;;;;;12.10;9.63;;;;;;;-145.63;48.16;37856.94;5026694;28;20356;-68
2023/08/19 06:28:50;;;;;;;10.77;9.77;;;;;;;-145.63;48.20;37841.28;5026560;28;20029;-69
2023/08/19 06:31:16;;;;;;;12.10;11.00;;;;;;;-145.63;47.51;37854.97;5026620;28;20037;-69
2023/08/19 06:33:43;;;;;;;10.93;9.90;;;;;;;-145.63;48.11;37839.31;5026423;28;20348;-69
2023/08/19 06:36:10;;;;;;;12.25;11.15;;;;;;;-145.63;48.03;37817.81;5026955;28;20034;-69
2023/08/19 06:38:41;;;;;;;12.95;11.20;;;;;;;-145.63;47.89;36908.84;5026288;28;20180;-69
2023/08/19 06:41:11;;;;;;;12.70;10.50;;;;;;;-145.63;47.62;37741.56;5013141;28;20093;-69
2023/08/19 06:43:38;;;;;;;12.73;10.48;;;;;;;-145.63;47.52;37737.66;5026261;28;20430;-69
2023/08/19 06:46:07;;;;;;;12.70;11.05;;;;;;;-145.63;47.07;37768.94;5026584;28;20052;-69
2023/08/19 06:48:35;;;;;;;11.80;10.75;;;;;;;-145.63;47.55;37755.25;5026381;28;20071;-69
2023/08/19 06:51:01;;;;;;;12.52;11.23;;;;;;;-145.63;47.93;37667.28;5026233;28;20049;-69
2023/08/19 06:53:27;;;;;;;11.85;10.75;;;;;;;-145.63;46.90;37692.72;5026074;28;20021;-69
2023/08/19 06:56:23;;;;;;;11.00;10.00;;;;;;;-145.63;46.76;37616.47;5026017;28;20269;-70
2023/08/19 06:58:53;;;;;;;12.10;10.55;;;;;;;-145.63;46.50;37583.22;5025932;28;20232;-69
2023/08/19 07:01:29;;;;;;;11.18;10.07;;;;;;;-145.63;46.61;37622.31;5024708;28;20030;-68
2023/08/19 07:03:55;;;;;;;11.32;10.13;;;;;;;-145.63;46.64;37454.22;5025716;28;20183;-67
2023/08/19 07:06:21;;;;;;;10.82;9.90;;;;;;;-145.63;46.33;37645.78;5025617;28;20381;-67
2023/08/19 07:08:49;;;;;;;11.57;10.18;;;;;;;-145.63;46.65;37679.03;5024662;28;20022;-67
2023/08/19 07:11:15;;;;;;;11.52;10.32;;;;;;;-145.63;46.51;37651.66;5025535;28;20033;-68
2023/08/19 07:13:42;;;;;;;11.68;10.43;;;;;;;-145.63;46.40;37643.84;5025617;28;20057;-68
2023/08/19 07:16:10;;;;;;;13.05;11.02;;;;;;;-145.63;46.77;37649.69;5025830;28;20040;-69
2023/08/19 07:18:39;;;;;;;11.60;10.50;;;;;;;-145.63;46.63;37737.66;5025625;28;20232;-68
2023/08/19 07:21:09;;;;;;;12.23;10.95;;;;;;;-145.63;46.49;37589.09;5025736;28;20033;-67
2023/08/19 07:23:39;;;;;;;12.52;11.23;;;;;;;-145.63;45.83;37630.16;5025433;28;20111;-68
2023/08/19 07:26:05;;;;;;;12.55;11.35;;;;;;;-145.63;45.82;37608.66;5025620;28;20029;-69
2023/08/19 07:28:32;;;;;;;13.98;11.30;;;;;;;-145.63;45.89;37594.97;5025537;28;20206;-68
2023/08/19 07:30:58;;;;;;;12.77;11.50;;;;;;;-145.63;45.77;37565.63;5025184;28;20032;-69
2023/08/19 07:33:24;;;;;;;12.90;11.70;;;;;;;-145.63;45.68;37559.78;5025154;28;20029;-68
2023/08/19 07:35:50;;;;;;;12.88;11.57;;;;;;;-145.63;45.10;37510.91;5025529;28;20259;-68
2023/08/19 07:38:16;;;;;;;12.32;11.20;;;;;;;-145.63;44.49;37507.00;5025370;28;20218;-69
2023/08/19 07:40:41;;;;;;;12.63;11.35;;;;;;;-145.63;43.66;37475.72;5024967;28;20037;-67
2023/08/19 07:43:07;;;;;;;12.52;11.35;;;;;;;-145.63;44.47;37430.75;5024807;28;20033;-68
2023/08/19 07:45:33;;;;;;;12.52;11.43;;;;;;;-145.63;43.41;37420.97;5024682;28;20041;-67
2023/08/19 07:47:59;;;;;;;13.77;12.38;;;;;;;-145.63;43.79;37422.94;5025245;28;20097;-66
2023/08/19 07:50:25;;;;;;;11.60;10.48;;;;;;;-145.63;44.06;37424.88;5024955;28;20262;-66
2023/08/19 07:52:51;;;;;;;13.68;12.30;;;;;;;-145.63;43.93;37442.47;5025128;28;20040;-67
2023/08/19 07:55:16;;;;;;;11.85;10.43;;;;;;;-145.63;44.25;37463.97;5024499;28;20037;-69
2023/08/19 07:57:42;;;;;;;12.50;11.25;;;;;;;-145.63;44.89;37452.25;5015773;28;20146;-70
2023/08/19 08:00:09;;;;;;;13.32;11.88;;;;;;;-145.63;45.07;37507.00;5024865;28;20022;-69
2023/08/19 08:02:35;;;;;;;13.60;12.20;;;;;;;-145.63;46.05;37518.72;5024711;28;20298;-68
2023/08/19 08:05:02;;;;;;;12.57;11.50;;;;;;;-145.63;45.30;37538.25;5024559;28;20060;-69
2023/08/19 08:07:30;;;;;;;12.82;11.52;;;;;;;-145.63;44.77;37585.19;5024918;28;20045;-70
2023/08/19 08:09:55;;;;;;;13.98;12.70;;;;;;;-145.63;45.85;37585.19;5024997;28;20030;-68
2023/08/19 08:12:21;;;;;;;13.60;12.23;;;;;;;-145.63;45.85;37567.59;5024522;28;20036;-70
2023/08/19 08:14:47;;;;;;;13.88;12.48;;;;;;;-145.63;45.89;37593.00;5024534;28;20229;-69
2023/08/19 08:17:13;;;;;;;12.88;11.48;;;;;;;-145.63;45.39;37559.78;5024271;28;20034;-69
2023/08/19 08:19:38;;;;;;;13.25;11.95;;;;;;;-145.63;45.39;37600.81;5024319;28;20209;-69
2023/08/19 08:22:05;;;;;;;13.27;11.85;;;;;;;-145.63;45.76;37581.28;5023995;28;20046;-70
2023/08/19 08:24:31;;;;;;;12.43;11.43;;;;;;;-145.63;44.38;37548.03;5024230;28;20033;-69
2023/08/19 08:26:57;;;;;;;11.60;10.50;;;;;;;-145.63;44.14;37501.13;5024155;28;20025;-69
2023/08/19 08:29:24;;;;;;;11.05;9.98;;;;;;;-145.63;42.27;37501.13;5024430;28;20021;-70
2023/08/19 08:31:50;;;;;;;11.05;10.07;;;;;;;-145.63;41.58;37417.06;5011539;28;20026;-70
2023/08/19 08:34:15;;;;;;;11.30;9.98;;;;;;;-145.63;41.49;37377.97;5016774;28;20032;-69
2023/08/19 08:36:41;;;;;;;13.57;11.15;;;;;;;-145.63;42.60;37397.53;5024080;28;20030;-68
2023/08/19 08:39:07;;;;;;;11.77;10.60;;;;;;;-145.63;41.35;37350.59;5024036;28;20075;-68
2023/08/19 08:41:37;;;;;;;10.73;9.73;;;;;;;-145.63;39.85;37333.00;5024120;28;20051;-68
2023/08/19 08:44:04;;;;;;;11.03;9.93;;;;;;;-145.63;40.16;37311.50;5024144;28;20036;-68
2023/08/19 08:46:31;;;;;;;10.52;9.52;;;;;;;-145.63;39.67;37315.41;5023778;28;20330;-67
2023/08/19 08:48:57;;;;;;;10.80;9.70;;;;;;;-145.63;38.90;37213.78;5023814;28;20057;-67
2023/08/19 08:51:25;;;;;;;9.85;8.80;;;;;;;-145.63;38.55;37225.50;5023761;28;20042;-69
2023/08/19 08:53:55;;;;;;;9.43;8.52;;;;;;;-145.63;37.88;37260.69;5023798;28;20109;-67
2023/08/19 08:56:22;;;;;;;10.38;9.38;;;;;;;-145.63;38.09;37250.91;5023968;28;20072;-68
2023/08/19 08:58:48;;;;;;;10.57;9.68;;;;;;;-145.63;37.53;37209.88;5023672;28;20057;-68
2023/08/19 09:01:16;;;;;;;10.30;9.40;;;;;;;-145.63;37.79;37209.88;5023692;28;20397;-68
2023/08/19 09:03:44;;;;;;;9.38;8.57;;;;;;;-145.63;37.52;37342.78;5023452;28;20030;-68
2023/08/19 09:06:15;;;;;;;9.48;8.57;;;;;;;-145.63;37.23;37178.59;5023644;28;20018;-69
2023/08/19 09:08:50;;;;;;;9.82;8.90;;;;;;;-145.63;36.65;37123.84;5023650;28;20025;-66
2023/08/19 09:11:22;;;;;;;11.15;10.15;;;;;;;-145.63;37.01;37205.94;5003846;28;20394;-67
2023/08/19 09:13:54;;;;;;;13.38;12.02;;;;;;;-145.63;37.30;37110.19;5020038;28;20025;-70
2023/08/19 09:16:20;;;;;;;12.15;10.95;;;;;;;-145.63;37.38;37098.44;5023649;28;20029;-69
2023/08/19 09:18:47;;;;;;;12.32;11.20;;;;;;;-145.63;36.76;37026.13;5023572;28;20097;-68
2023/08/19 09:21:12;;;;;;;12.82;11.38;;;;;;;-145.63;36.66;36922.53;5023230;28;20030;-68
2023/08/19 09:23:39;;;;;;;11.27;10.35;;;;;;;-145.63;36.11;36908.84;5021556;28;20025;-69
2023/08/19 09:26:09;;;;;;;9.68;8.77;;;;;;;-145.63;34.93;36807.22;5023455;28;20233;-67
2023/08/19 09:28:35;;;;;;;9.65;8.60;;;;;;;-145.63;34.11;36856.06;5023404;28;20029;-68
2023/08/19 09:31:01;;;;;;;10.00;9.07;;;;;;;-145.63;34.72;36777.91;5023309;28;20060;-68
2023/08/19 09:33:26;;;;;;;9.77;8.95;;;;;;;-145.63;35.16;36834.56;5022930;28;20310;-67
2023/08/19 09:35:57;;;;;;;9.95;8.75;;;;;;;-145.63;34.18;36830.66;5022908;28;20022;-67
2023/08/19 09:38:26;;;;;;;10.18;9.30;;;;;;;-145.63;34.44;36961.63;5023201;28;20022;-67
2023/08/19 09:41:06;;;;;;;9.93;9.02;;;;;;;-145.63;34.20;36904.94;5023182;28;20017;-67
2023/08/19 09:43:33;;;;;;;9.55;8.65;;;;;;;-145.63;33.55;36963.56;5023228;28;20026;-67
2023/08/19 09:46:00;;;;;;;10.32;9.23;;;;;;;-145.63;34.24;36951.84;5023302;28;20033;-68
2023/08/19 09:48:26;;;;;;;10.75;9.60;;;;;;;-145.63;34.96;36967.50;5023170;28;20030;-68
2023/08/19 09:50:52;;;;;;;10.80;9.90;;;;;;;-145.63;35.74;36899.06;5022975;28;20021;-68
2023/08/19 09:53:18;;;;;;;9.75;8.93;;;;;;;-145.63;34.91;36924.50;5022909;28;20060;-69
2023/08/19 09:55:46;;;;;;;10.88;8.95;;;;;;;-145.63;34.11;36936.22;5022472;28;20034;-68
2023/08/19 09:58:12;;;;;;;9.85;9.02;;;;;;;-145.63;34.40;36947.94;5023086;28;20026;-68
2023/08/19 10:00:38;;;;;;;9.73;8.73;;;;;;;-145.63;34.47;37026.13;5022730;28;20289;-67
2023/08/19 10:03:07;;;;;;;9.27;8.52;;;;;;;-145.63;34.51;37018.31;5023127;28;20030;-66
2023/08/19 10:05:40;;;;;;;9.85;9.05;;;;;;;-145.63;34.21;37049.59;5023048;28;20302;-68
2023/08/19 10:08:19;;;;;;;10.10;9.20;;;;;;;-145.63;35.28;37016.34;5023027;28;20045;-67
2023/08/19 10:10:46;;;;;;;9.77;8.93;;;;;;;-145.63;34.53;37131.69;5022775;28;20037;-67
2023/08/19 10:13:16;;;;;;;8.88;8.07;;;;;;;-145.63;34.87;37065.22;5022549;28;20030;-67
2023/08/19 10:15:43;;;;;;;9.53;8.60;;;;;;;-145.63;35.19;37153.19;5022761;28;20098;-67
2023/08/19 10:18:19;;;;;;;9.27;8.30;;;;;;;-145.63;34.21;37194.22;5022539;28;20030;-67
2023/08/19 10:20:50;;;;;;;9.50;8.45;;;;;;;-145.63;34.25;36643.03;5022631;28;20037;-67
2023/08/19 10:23:17;;;;;;;10.07;9.25;;;;;;;-145.63;35.16;37147.31;5022974;28;20064;-66
2023/08/19 10:25:44;;;;;;;13.32;12.23;;;;;;;-145.63;35.76;37180.53;5022606;28;20033;-67
2023/08/19 10:28:22;;;;;;;10.43;9.52;;;;;;;-145.63;36.60;37186.41;5022878;28;20038;-66
2023/08/19 10:31:07;;;;;;;9.88;8.88;;;;;;;-145.63;33.66;37110.19;5022440;28;20389;-66
2023/08/19 10:33:39;;;;;;;11.75;8.23;;;;;;;-145.63;35.53;37047.63;5022480;28;20057;-67
2023/08/19 10:36:07;;;;;;;10.25;9.35;;;;;;;-145.63;35.40;37037.84;5024949;28;20140;-67
2023/08/19 10:38:55;;;;;;;11.82;7.93;;;;;;;-145.63;33.39;37030.03;5026080;28;20100;-67
2023/08/19 10:41:22;;;;;;;9.60;8.10;;;;;;;-145.63;33.50;36971.41;5012996;28;20109;-68
2023/08/19 10:43:57;;;;;;;9.85;8.98;;;;;;;-145.63;34.05;37008.53;5025753;28;20034;-67
2023/08/19 10:46:34;;;;;;;9.45;8.45;;;;;;;-145.63;34.22;37053.50;5025927;28;20032;-68
2023/08/19 10:49:02;;;;;;;10.18;9.20;;;;;;;-145.63;34.89;37037.84;5026088;28;20210;-68
2023/08/19 10:51:53;;;;;;;10.98;9.90;;;;;;;-145.63;36.06;37045.66;5025745;28;20084;-69
2023/08/19 10:54:26;;;;;;;;;;;;;;;-145.63;35.14;37030.03;5026243;28;20037;-68
2023/08/19 10:57:03;;;;;;;9.65;8.52;;;;;;;-145.63;33.98;37082.81;5026147;28;19909;-66
2023/08/19 10:59:31;;;;;;;10.15;9.02;;;;;;;-145.63;34.32;37118.00;5006252;28;20038;-67
2023/08/19 11:01:56;;;;;;;11.30;8.93;;;;;;;-145.63;34.42;37121.91;5022663;28;20033;-65
2023/08/19 11:04:25;;;;;;;10.73;9.77;;;;;;;-145.63;35.23;37121.91;5025677;28;20089;-67
2023/08/19 11:06:55;;;;;;;10.82;9.73;;;;;;;-145.63;36.14;37166.84;5025433;28;20072;-67